createdAt,value
2017-03-31T00:00:43.703Z,15.01
2017-03-31T00:01:52.966Z,14.94
2017-03-31T00:03:01.969Z,14.95
2017-03-31T00:04:10.932Z,14.95
2017-03-31T00:05:19.885Z,14.94
2017-03-31T00:06:28.844Z,14.94
2017-03-31T00:07:38.049Z,14.94
2017-03-31T00:08:47.005Z,14.89
2017-03-31T00:09:55.966Z,14.92
2017-03-31T00:11:04.919Z,14.78
2017-03-31T00:12:13.881Z,14.89
2017-03-31T00:13:23.138Z,14.78
2017-03-31T00:14:32.097Z,14.78
2017-03-31T00:15:41.136Z,14.77
2017-03-31T00:16:50.088Z,14.84
2017-03-31T00:17:59.044Z,14.83
2017-03-31T00:19:08.253Z,14.83
2017-03-31T00:20:17.209Z,14.83
2017-03-31T00:21:26.168Z,14.81
2017-03-31T00:22:35.132Z,14.83
2017-03-31T00:23:44.174Z,14.86
2017-03-31T00:24:53.433Z,14.81
2017-03-31T00:26:02.479Z,14.78
2017-03-31T00:27:11.437Z,14.72
2017-03-31T00:28:20.395Z,14.78
2017-03-31T00:29:29.349Z,14.8
2017-03-31T00:30:38.688Z,14.72
2017-03-31T00:31:47.647Z,14.8
2017-03-31T00:32:56.693Z,14.7
2017-03-31T00:34:05.652Z,14.73
2017-03-31T00:35:14.608Z,14.68
2017-03-31T00:36:23.869Z,14.73
2017-03-31T00:37:32.827Z,14.77
2017-03-31T00:38:41.875Z,14.69
2017-03-31T00:39:50.836Z,14.72
2017-03-31T00:40:59.797Z,14.7
2017-03-31T00:42:09.053Z,14.72
2017-03-31T00:43:18.008Z,14.73
2017-03-31T00:44:26.962Z,14.64
2017-03-31T00:45:35.921Z,14.72
2017-03-31T00:46:44.964Z,14.75
2017-03-31T00:47:54.306Z,14.64
2017-03-31T00:49:03.262Z,14.6
2017-03-31T00:50:12.309Z,14.61
2017-03-31T00:51:21.262Z,14.6
2017-03-31T00:52:30.220Z,14.62
2017-03-31T00:53:39.424Z,14.58
2017-03-31T00:54:48.378Z,14.68
2017-03-31T00:55:57.336Z,14.68
2017-03-31T00:57:06.294Z,14.68
2017-03-31T00:58:15.253Z,14.68
2017-03-31T00:59:24.597Z,14.65
2017-03-31T01:00:33.560Z,14.62
2017-03-31T01:01:42.519Z,14.62
2017-03-31T01:02:51.479Z,14.65
2017-03-31T01:04:00.767Z,14.57
2017-03-31T01:05:09.981Z,14.65
2017-03-31T01:06:18.967Z,14.65
2017-03-31T01:07:27.924Z,14.64
2017-03-31T01:08:36.877Z,14.6
2017-03-31T01:09:45.836Z,14.61
2017-03-31T01:10:55.047Z,14.58
2017-03-31T01:12:04.005Z,14.55
2017-03-31T01:13:12.963Z,14.58
2017-03-31T01:14:21.921Z,14.54
2017-03-31T01:15:30.882Z,14.51
2017-03-31T01:16:40.136Z,14.46
2017-03-31T01:17:49.092Z,14.46
2017-03-31T01:18:58.044Z,14.43
2017-03-31T01:20:06.996Z,14.5
2017-03-31T01:21:15.956Z,14.46
2017-03-31T01:22:25.165Z,14.46
2017-03-31T01:23:34.127Z,14.42
2017-03-31T01:24:43.171Z,14.46
2017-03-31T01:25:52.125Z,14.47
2017-03-31T01:27:01.079Z,14.45
2017-03-31T01:28:10.311Z,14.47
2017-03-31T01:29:19.264Z,14.42
2017-03-31T01:30:28.214Z,14.36
2017-03-31T01:31:37.172Z,14.37
2017-03-31T01:32:46.130Z,14.36
2017-03-31T01:33:55.344Z,14.39
2017-03-31T01:35:04.306Z,14.29
2017-03-31T01:36:13.260Z,14.46
2017-03-31T01:37:22.217Z,14.35
2017-03-31T01:38:31.179Z,14.36
2017-03-31T01:39:40.435Z,14.45
2017-03-31T01:40:49.393Z,14.37
2017-03-31T01:41:58.348Z,14.32
2017-03-31T01:43:07.302Z,14.33
2017-03-31T01:44:16.254Z,14.37
2017-03-31T01:45:25.458Z,14.4
2017-03-31T01:46:34.423Z,14.4
2017-03-31T01:47:43.379Z,14.25
2017-03-31T01:48:52.334Z,14.35
2017-03-31T01:50:01.294Z,14.27
2017-03-31T01:51:10.554Z,14.33
2017-03-31T01:52:19.514Z,14.35
2017-03-31T01:53:28.473Z,14.28
2017-03-31T01:54:37.425Z,14.29
2017-03-31T01:55:46.385Z,14.24
2017-03-31T01:56:55.641Z,14.28
2017-03-31T01:58:04.594Z,14.25
2017-03-31T01:59:13.554Z,14.2
2017-03-31T02:00:22.510Z,14.24
2017-03-31T02:01:31.474Z,14.22
2017-03-31T02:02:40.726Z,14.21
2017-03-31T02:03:49.680Z,14.2
2017-03-31T02:04:58.637Z,14.22
2017-03-31T02:06:07.595Z,14.1
2017-03-31T02:07:16.549Z,14.21
2017-03-31T02:08:25.805Z,14.18
2017-03-31T02:09:34.769Z,14.12
2017-03-31T02:10:43.728Z,14.09
2017-03-31T02:11:52.680Z,14.07
2017-03-31T02:13:01.642Z,14.07
2017-03-31T02:14:10.899Z,14.09
2017-03-31T02:15:19.857Z,14.14
2017-03-31T02:16:28.822Z,14.1
2017-03-31T02:17:37.778Z,14.09
2017-03-31T02:18:46.741Z,14.09
2017-03-31T02:19:56.018Z,14.07
2017-03-31T02:21:05.682Z,14.12
2017-03-31T02:22:14.640Z,14
2017-03-31T02:23:23.595Z,14.1
2017-03-31T02:24:32.549Z,14.09
2017-03-31T02:25:41.810Z,14.14
2017-03-31T02:26:50.765Z,14.06
2017-03-31T02:27:59.719Z,14.09
2017-03-31T02:29:08.674Z,14.06
2017-03-31T02:30:17.629Z,14.04
2017-03-31T02:31:26.886Z,13.97
2017-03-31T02:32:35.844Z,14.02
2017-03-31T02:33:44.799Z,14
2017-03-31T02:34:53.761Z,13.91
2017-03-31T02:36:02.723Z,14.03
2017-03-31T02:37:11.979Z,14.03
2017-03-31T02:38:20.950Z,13.95
2017-03-31T02:39:29.906Z,13.89
2017-03-31T02:40:38.861Z,13.96
2017-03-31T02:41:47.815Z,13.96
2017-03-31T02:42:57.070Z,13.87
2017-03-31T02:44:06.036Z,13.96
2017-03-31T02:45:14.992Z,13.91
2017-03-31T02:46:23.944Z,14
2017-03-31T02:47:32.899Z,13.95
2017-03-31T02:48:42.247Z,13.96
2017-03-31T02:49:51.199Z,13.92
2017-03-31T02:51:00.162Z,13.97
2017-03-31T02:52:09.119Z,13.97
2017-03-31T02:53:18.074Z,13.91
2017-03-31T02:54:27.330Z,13.89
2017-03-31T02:55:36.283Z,13.88
2017-03-31T02:56:45.261Z,13.92
2017-03-31T02:57:54.217Z,13.84
2017-03-31T02:59:03.175Z,13.84
2017-03-31T03:00:12.436Z,13.82
2017-03-31T03:01:21.398Z,13.85
2017-03-31T03:02:30.367Z,13.88
2017-03-31T03:03:39.321Z,13.82
2017-03-31T03:04:48.287Z,13.85
2017-03-31T03:05:57.546Z,13.81
2017-03-31T03:07:06.502Z,13.79
2017-03-31T03:08:15.464Z,13.82
2017-03-31T03:09:24.420Z,13.84
2017-03-31T03:10:33.376Z,13.75
2017-03-31T03:11:42.633Z,13.87
2017-03-31T03:12:51.591Z,13.84
2017-03-31T03:14:00.548Z,13.85
2017-03-31T03:15:09.588Z,13.84
2017-03-31T03:16:18.541Z,13.78
2017-03-31T03:17:27.814Z,13.81
2017-03-31T03:18:36.768Z,13.84
2017-03-31T03:19:45.724Z,13.81
2017-03-31T03:20:54.682Z,13.82
2017-03-31T03:22:03.638Z,13.77
2017-03-31T03:23:12.899Z,13.82
2017-03-31T03:24:21.853Z,13.75
2017-03-31T03:25:30.811Z,13.75
2017-03-31T03:26:39.765Z,13.79
2017-03-31T03:27:48.723Z,13.79
2017-03-31T03:28:57.979Z,13.78
2017-03-31T03:30:06.935Z,13.75
2017-03-31T03:31:15.896Z,13.77
2017-03-31T03:32:24.854Z,13.77
2017-03-31T03:33:33.816Z,13.73
2017-03-31T03:34:43.078Z,13.7
2017-03-31T03:35:52.033Z,13.7
2017-03-31T03:37:00.989Z,13.78
2017-03-31T03:38:09.943Z,13.75
2017-03-31T03:39:18.897Z,13.69
2017-03-31T03:40:28.098Z,13.71
2017-03-31T03:41:37.052Z,13.78
2017-03-31T03:42:46.009Z,13.7
2017-03-31T03:43:54.962Z,13.71
2017-03-31T03:45:03.923Z,13.67
2017-03-31T03:46:13.184Z,13.75
2017-03-31T03:47:22.169Z,13.69
2017-03-31T03:48:31.128Z,13.7
2017-03-31T03:49:40.076Z,13.7
2017-03-31T03:50:55.297Z,13.69
2017-03-31T03:52:04.554Z,13.67
2017-03-31T03:53:13.509Z,13.66
2017-03-31T03:54:22.467Z,13.69
2017-03-31T03:55:31.423Z,13.7
2017-03-31T03:56:40.375Z,13.67
2017-03-31T03:57:49.593Z,13.6
2017-03-31T03:58:58.578Z,13.66
2017-03-31T04:00:07.531Z,13.66
2017-03-31T04:01:16.486Z,13.63
2017-03-31T04:02:25.440Z,13.64
2017-03-31T04:03:34.674Z,13.57
2017-03-31T04:04:43.666Z,13.63
2017-03-31T04:05:52.618Z,13.59
2017-03-31T04:07:01.575Z,13.6
2017-03-31T04:08:10.530Z,13.55
2017-03-31T04:09:19.790Z,13.57
2017-03-31T04:10:28.747Z,13.59
2017-03-31T04:11:37.791Z,13.64
2017-03-31T04:12:47.075Z,13.6
2017-03-31T04:13:56.358Z,13.6
2017-03-31T04:15:05.567Z,13.67
2017-03-31T04:16:14.525Z,13.54
2017-03-31T04:17:23.487Z,13.64
2017-03-31T04:18:32.439Z,13.55
2017-03-31T04:19:41.397Z,13.6
2017-03-31T04:20:50.698Z,13.55
2017-03-31T04:21:59.656Z,13.59
2017-03-31T04:23:08.616Z,13.59
2017-03-31T04:24:17.570Z,13.54
2017-03-31T04:25:26.520Z,13.59
2017-03-31T04:26:35.735Z,13.59
2017-03-31T04:27:44.687Z,13.52
2017-03-31T04:28:53.728Z,13.51
2017-03-31T04:30:02.684Z,13.57
2017-03-31T04:31:11.634Z,13.54
2017-03-31T04:32:20.838Z,13.6
2017-03-31T04:33:29.792Z,13.52
2017-03-31T04:34:38.749Z,13.51
2017-03-31T04:35:47.704Z,13.52
2017-03-31T04:36:56.660Z,13.52
2017-03-31T04:38:05.872Z,13.49
2017-03-31T04:39:14.824Z,13.54
2017-03-31T04:40:23.774Z,13.52
2017-03-31T04:41:32.814Z,13.52
2017-03-31T04:42:41.767Z,13.49
2017-03-31T04:43:50.972Z,13.54
2017-03-31T04:45:00.013Z,13.41
2017-03-31T04:46:08.973Z,13.54
2017-03-31T04:47:18.018Z,13.42
2017-03-31T04:48:26.973Z,13.49
2017-03-31T04:49:36.267Z,13.45
2017-03-31T04:50:45.216Z,13.52
2017-03-31T04:51:54.175Z,13.48
2017-03-31T04:53:03.130Z,13.45
2017-03-31T04:54:12.088Z,13.39
2017-03-31T04:55:21.296Z,13.45
2017-03-31T04:56:30.281Z,13.46
2017-03-31T04:57:39.242Z,13.41
2017-03-31T04:58:48.199Z,13.42
2017-03-31T04:59:57.160Z,13.41
2017-03-31T05:01:06.693Z,13.44
2017-03-31T05:02:15.830Z,13.39
2017-03-31T05:03:24.793Z,13.48
2017-03-31T05:04:33.753Z,13.46
2017-03-31T05:05:42.718Z,13.42
2017-03-31T05:06:51.925Z,13.38
2017-03-31T05:08:00.878Z,13.44
2017-03-31T05:09:10.247Z,13.45
2017-03-31T05:10:19.289Z,13.46
2017-03-31T05:11:28.243Z,13.45
2017-03-31T05:12:37.448Z,13.46
2017-03-31T05:13:46.405Z,13.49
2017-03-31T05:14:55.357Z,13.49
2017-03-31T05:16:04.312Z,13.52
2017-03-31T05:17:13.267Z,13.49
2017-03-31T05:18:22.471Z,13.57
2017-03-31T05:19:31.435Z,13.52
2017-03-31T05:20:40.481Z,13.48
2017-03-31T05:21:49.437Z,13.54
2017-03-31T05:22:58.391Z,13.49
2017-03-31T05:24:07.604Z,13.52
2017-03-31T05:25:16.558Z,13.51
2017-03-31T05:26:25.532Z,13.52
2017-03-31T05:27:34.496Z,13.54
2017-03-31T05:28:43.458Z,13.49
2017-03-31T05:29:52.660Z,13.51
2017-03-31T05:31:01.608Z,13.48
2017-03-31T05:32:10.561Z,13.52
2017-03-31T05:33:19.516Z,13.57
2017-03-31T05:34:28.472Z,13.57
2017-03-31T05:35:37.681Z,13.62
2017-03-31T05:36:46.636Z,13.62
2017-03-31T05:37:55.591Z,13.57
2017-03-31T05:39:04.964Z,13.54
2017-03-31T05:40:13.920Z,13.52
2017-03-31T05:41:23.125Z,13.62
2017-03-31T05:42:32.083Z,13.66
2017-03-31T05:43:41.039Z,13.59
2017-03-31T05:44:50.080Z,13.62
2017-03-31T05:45:59.125Z,13.62
2017-03-31T05:47:08.330Z,13.62
2017-03-31T05:48:17.285Z,13.64
2017-03-31T05:49:26.237Z,13.7
2017-03-31T05:50:35.282Z,13.67
2017-03-31T05:51:44.273Z,13.7
2017-03-31T05:52:53.480Z,13.7
2017-03-31T05:54:02.524Z,13.79
2017-03-31T05:55:11.489Z,13.78
2017-03-31T05:56:20.451Z,13.73
2017-03-31T05:57:29.410Z,13.73
2017-03-31T05:58:38.626Z,13.77
2017-03-31T05:59:47.582Z,13.78
2017-03-31T06:00:56.631Z,13.81
2017-03-31T06:02:05.585Z,13.79
2017-03-31T06:03:14.537Z,13.79
2017-03-31T06:04:23.743Z,13.85
2017-03-31T06:05:32.700Z,13.89
2017-03-31T06:06:41.747Z,13.88
2017-03-31T06:07:50.705Z,13.84
2017-03-31T06:08:59.671Z,13.87
2017-03-31T06:10:08.877Z,13.91
2017-03-31T06:11:17.832Z,13.99
2017-03-31T06:12:26.785Z,13.91
2017-03-31T06:13:35.745Z,14
2017-03-31T06:14:44.786Z,13.91
2017-03-31T06:15:53.993Z,14.02
2017-03-31T06:17:03.284Z,14.03
2017-03-31T06:18:12.239Z,14.02
2017-03-31T06:19:21.194Z,14.03
2017-03-31T06:20:30.179Z,14.1
2017-03-31T06:21:39.385Z,14.12
2017-03-31T06:22:48.337Z,14.15
2017-03-31T06:23:57.289Z,14.07
2017-03-31T06:25:06.246Z,14.09
2017-03-31T06:26:15.226Z,14.09
2017-03-31T06:27:24.439Z,14.09
2017-03-31T06:28:33.396Z,14.14
2017-03-31T06:29:42.440Z,14.18
2017-03-31T06:30:51.397Z,14.25
2017-03-31T06:32:00.351Z,14.17
2017-03-31T06:33:09.572Z,14.27
2017-03-31T06:34:18.535Z,14.32
2017-03-31T06:35:27.496Z,14.27
2017-03-31T06:36:36.449Z,14.32
2017-03-31T06:37:45.401Z,14.33
2017-03-31T06:38:54.602Z,14.37
2017-03-31T06:40:03.571Z,14.4
2017-03-31T06:41:12.524Z,14.45
2017-03-31T06:42:21.481Z,14.42
2017-03-31T06:43:30.436Z,14.5
2017-03-31T06:44:39.641Z,14.5
2017-03-31T06:45:48.630Z,14.46
2017-03-31T06:46:57.582Z,14.61
2017-03-31T06:48:06.546Z,14.6
2017-03-31T06:49:15.503Z,14.64
2017-03-31T06:50:24.708Z,14.69
2017-03-31T06:51:33.661Z,14.57
2017-03-31T06:52:42.703Z,14.61
2017-03-31T06:53:51.661Z,14.72
2017-03-31T06:55:00.700Z,14.68
2017-03-31T06:56:09.914Z,14.77
2017-03-31T06:57:18.874Z,14.69
2017-03-31T06:58:27.832Z,14.8
2017-03-31T06:59:36.791Z,14.83
2017-03-31T07:00:45.746Z,14.91
2017-03-31T07:01:54.951Z,14.96
2017-03-31T07:03:03.917Z,14.92
2017-03-31T07:04:12.873Z,14.98
2017-03-31T07:05:21.825Z,15.02
2017-03-31T07:06:30.781Z,14.96
2017-03-31T07:07:40.001Z,15.02
2017-03-31T07:08:48.971Z,15.14
2017-03-31T07:09:57.930Z,15.06
2017-03-31T07:11:06.979Z,15.11
2017-03-31T07:12:15.938Z,15.13
2017-03-31T07:13:25.149Z,15.17
2017-03-31T07:14:34.108Z,15.21
2017-03-31T07:15:43.069Z,15.31
2017-03-31T07:16:52.111Z,15.27
2017-03-31T07:18:01.159Z,15.35
2017-03-31T07:19:10.459Z,15.36
2017-03-31T07:20:19.424Z,15.41
2017-03-31T07:21:28.380Z,15.46
2017-03-31T07:22:37.342Z,15.47
2017-03-31T07:23:46.300Z,15.46
2017-03-31T07:24:55.506Z,15.46
2017-03-31T07:26:04.465Z,15.59
2017-03-31T07:27:13.426Z,15.56
2017-03-31T07:28:22.396Z,15.64
2017-03-31T07:29:31.358Z,15.71
2017-03-31T07:30:40.567Z,15.74
2017-03-31T07:31:49.612Z,15.72
2017-03-31T07:32:58.569Z,15.75
2017-03-31T07:34:07.536Z,15.8
2017-03-31T07:35:16.493Z,15.84
2017-03-31T07:36:25.702Z,15.8
2017-03-31T07:37:34.748Z,15.87
2017-03-31T07:38:43.703Z,15.94
2017-03-31T07:39:52.658Z,16.02
2017-03-31T07:41:01.696Z,15.97
2017-03-31T07:42:10.913Z,16.04
2017-03-31T07:43:19.879Z,16.04
2017-03-31T07:44:28.932Z,16.07
2017-03-31T07:45:37.892Z,16.12
2017-03-31T07:46:46.930Z,16.12
2017-03-31T07:47:56.203Z,16.21
2017-03-31T07:49:05.167Z,16.27
2017-03-31T07:50:14.130Z,16.24
2017-03-31T07:51:23.086Z,16.35
2017-03-31T07:52:32.370Z,16.35
2017-03-31T07:53:41.581Z,16.46
2017-03-31T07:54:50.540Z,16.48
2017-03-31T07:55:59.497Z,16.53
2017-03-31T07:57:08.458Z,16.6
2017-03-31T07:58:17.504Z,16.64
2017-03-31T07:59:26.712Z,16.63
2017-03-31T08:00:35.671Z,16.66
2017-03-31T08:01:44.628Z,16.73
2017-03-31T08:02:53.586Z,16.76
2017-03-31T08:04:02.550Z,16.86
2017-03-31T08:05:11.757Z,16.89
2017-03-31T08:06:20.801Z,16.89
2017-03-31T08:07:29.757Z,17.04
2017-03-31T08:08:38.717Z,16.93
2017-03-31T08:09:47.670Z,17.08
2017-03-31T08:10:56.968Z,17.14
2017-03-31T08:12:05.926Z,17.14
2017-03-31T08:13:14.885Z,17.16
2017-03-31T08:14:23.846Z,17.19
2017-03-31T08:15:32.816Z,17.28
2017-03-31T08:16:42.031Z,17.3
2017-03-31T08:17:50.996Z,17.44
2017-03-31T08:18:59.957Z,17.43
2017-03-31T08:20:08.920Z,17.52
2017-03-31T08:21:17.885Z,17.54
2017-03-31T08:22:27.096Z,17.54
2017-03-31T08:23:36.074Z,17.77
2017-03-31T08:24:45.117Z,17.62
2017-03-31T08:25:54.077Z,17.66
2017-03-31T08:27:03.036Z,17.75
2017-03-31T08:28:12.245Z,17.75
2017-03-31T08:29:21.199Z,17.89
2017-03-31T08:30:30.162Z,17.82
2017-03-31T08:31:39.117Z,17.86
2017-03-31T08:32:48.077Z,17.86
2017-03-31T08:33:57.374Z,17.95
2017-03-31T08:35:06.418Z,17.9
2017-03-31T08:36:15.468Z,17.92
2017-03-31T08:37:24.429Z,17.95
2017-03-31T08:38:33.386Z,18
2017-03-31T08:39:42.601Z,18.02
2017-03-31T08:40:51.560Z,18.03
2017-03-31T08:42:00.601Z,18.14
2017-03-31T08:43:09.557Z,18.17
2017-03-31T08:44:18.520Z,18.15
2017-03-31T08:45:27.729Z,18.25
2017-03-31T08:46:36.815Z,18.23
2017-03-31T08:47:45.784Z,18.36
2017-03-31T08:48:54.745Z,18.35
2017-03-31T08:50:03.704Z,18.44
2017-03-31T08:51:12.913Z,18.36
2017-03-31T08:52:21.873Z,18.33
2017-03-31T08:53:30.834Z,18.41
2017-03-31T08:54:39.798Z,18.44
2017-03-31T08:55:48.769Z,18.54
2017-03-31T08:56:58.028Z,18.52
2017-03-31T08:58:06.984Z,18.62
2017-03-31T08:59:15.944Z,18.69
2017-03-31T09:00:24.912Z,18.63
2017-03-31T09:01:33.872Z,18.73
2017-03-31T09:02:43.086Z,18.8
2017-03-31T09:03:52.041Z,18.81
2017-03-31T09:05:01.019Z,18.78
2017-03-31T09:06:09.992Z,18.82
2017-03-31T09:07:19.040Z,18.87
2017-03-31T09:08:28.300Z,18.95
2017-03-31T09:09:37.268Z,19.04
2017-03-31T09:10:46.318Z,18.98
2017-03-31T09:11:55.284Z,18.99
2017-03-31T09:13:04.260Z,19.06
2017-03-31T09:14:13.479Z,19.04
2017-03-31T09:15:22.439Z,18.99
2017-03-31T09:16:31.400Z,19.07
2017-03-31T09:17:40.367Z,19.18
2017-03-31T09:18:49.322Z,19.1
2017-03-31T09:19:58.862Z,19.18
2017-03-31T09:21:07.911Z,19.18
2017-03-31T09:22:16.876Z,19.19
2017-03-31T09:23:25.833Z,19.22
2017-03-31T09:24:34.793Z,19.19
2017-03-31T09:25:44.003Z,19.32
2017-03-31T09:26:52.969Z,19.33
2017-03-31T09:28:01.935Z,19.37
2017-03-31T09:29:10.988Z,19.33
2017-03-31T09:30:19.946Z,19.41
2017-03-31T09:31:29.158Z,19.37
2017-03-31T09:32:38.113Z,19.46
2017-03-31T09:33:47.077Z,19.51
2017-03-31T09:34:56.041Z,19.5
2017-03-31T09:36:05.730Z,19.55
2017-03-31T09:37:14.937Z,19.55
2017-03-31T09:38:23.896Z,19.58
2017-03-31T09:39:32.856Z,19.63
2017-03-31T09:40:41.832Z,19.65
2017-03-31T09:41:50.793Z,19.73
2017-03-31T09:43:00.041Z,19.71
2017-03-31T09:44:09.017Z,19.68
2017-03-31T09:45:17.982Z,19.76
2017-03-31T09:46:26.949Z,19.76
2017-03-31T09:47:35.998Z,19.8
2017-03-31T09:48:45.211Z,19.8
2017-03-31T09:49:54.261Z,19.83
2017-03-31T09:51:03.596Z,19.87
2017-03-31T09:52:12.650Z,19.94
2017-03-31T09:53:21.608Z,19.86
2017-03-31T09:54:30.822Z,19.87
2017-03-31T09:55:39.790Z,20.02
2017-03-31T09:56:48.756Z,19.96
2017-03-31T09:57:57.716Z,20.01
2017-03-31T09:59:06.681Z,20.06
2017-03-31T10:00:15.891Z,20.03
2017-03-31T10:01:24.862Z,20.05
2017-03-31T10:02:33.823Z,20.1
2017-03-31T10:03:42.787Z,20.13
2017-03-31T10:04:51.750Z,20.02
2017-03-31T10:06:00.967Z,20.05
2017-03-31T10:07:09.929Z,20.05
2017-03-31T10:08:18.976Z,20.02
2017-03-31T10:09:28.028Z,20.08
2017-03-31T10:10:36.992Z,20.11
2017-03-31T10:11:46.210Z,20.14
2017-03-31T10:12:55.255Z,20.16
2017-03-31T10:14:04.217Z,20.21
2017-03-31T10:15:13.181Z,20.31
2017-03-31T10:16:22.146Z,20.28
2017-03-31T10:17:31.357Z,20.39
2017-03-31T10:18:40.399Z,20.39
2017-03-31T10:19:49.359Z,20.42
2017-03-31T10:20:58.315Z,20.5
2017-03-31T10:22:07.316Z,20.5
2017-03-31T10:23:16.533Z,20.61
2017-03-31T10:24:25.494Z,20.58
2017-03-31T10:25:34.458Z,20.66
2017-03-31T10:26:43.421Z,20.74
2017-03-31T10:27:52.385Z,20.73
2017-03-31T10:29:01.685Z,20.74
2017-03-31T10:30:10.651Z,20.8
2017-03-31T10:31:19.612Z,20.87
2017-03-31T10:32:28.576Z,20.88
2017-03-31T10:33:37.540Z,20.91
2017-03-31T10:34:46.758Z,20.92
2017-03-31T10:35:55.720Z,20.85
2017-03-31T10:37:04.686Z,20.94
2017-03-31T10:38:13.651Z,20.89
2017-03-31T10:39:22.614Z,20.99
2017-03-31T10:40:31.828Z,20.94
2017-03-31T10:41:40.786Z,21.03
2017-03-31T10:42:49.748Z,21.06
2017-03-31T10:43:58.891Z,20.99
2017-03-31T10:45:07.855Z,21.1
2017-03-31T10:46:17.066Z,21.07
2017-03-31T10:47:26.034Z,21.16
2017-03-31T10:48:34.998Z,21.12
2017-03-31T10:49:43.962Z,21.25
2017-03-31T10:50:52.929Z,21.17
2017-03-31T10:52:02.195Z,21.22
2017-03-31T10:53:11.166Z,21.25
2017-03-31T10:54:20.171Z,21.22
2017-03-31T10:55:29.131Z,21.28
2017-03-31T10:56:38.090Z,21.29
2017-03-31T10:57:47.301Z,21.31
2017-03-31T10:58:56.344Z,21.34
2017-03-31T11:00:05.309Z,21.42
2017-03-31T11:01:14.366Z,21.42
2017-03-31T11:02:23.330Z,21.42
2017-03-31T11:03:32.546Z,21.43
2017-03-31T11:04:41.515Z,21.43
2017-03-31T11:05:50.476Z,21.43
2017-03-31T11:06:59.437Z,21.44
2017-03-31T11:08:08.401Z,21.43
2017-03-31T11:09:17.619Z,21.44
2017-03-31T11:10:26.589Z,21.44
2017-03-31T11:11:35.552Z,21.47
2017-03-31T11:12:44.515Z,21.46
2017-03-31T11:13:53.477Z,21.46
2017-03-31T11:15:02.687Z,21.54
2017-03-31T11:16:11.651Z,21.58
2017-03-31T11:17:20.616Z,21.53
2017-03-31T11:18:29.581Z,21.46
2017-03-31T11:19:38.539Z,21.52
2017-03-31T11:20:47.749Z,21.54
2017-03-31T11:21:56.709Z,21.54
2017-03-31T11:23:05.669Z,21.5
2017-03-31T11:24:14.638Z,21.5
2017-03-31T11:25:23.599Z,21.54
2017-03-31T11:26:32.813Z,21.54
2017-03-31T11:27:41.773Z,21.58
2017-03-31T11:28:50.742Z,21.64
2017-03-31T11:29:59.702Z,21.56
2017-03-31T11:31:08.668Z,21.64
2017-03-31T11:32:17.880Z,21.61
2017-03-31T11:33:26.845Z,21.64
2017-03-31T11:34:35.810Z,21.64
2017-03-31T11:35:44.777Z,21.72
2017-03-31T11:36:53.736Z,21.62
2017-03-31T11:38:03.085Z,21.74
2017-03-31T11:39:12.047Z,21.8
2017-03-31T11:40:21.013Z,21.67
2017-03-31T11:41:29.978Z,21.79
2017-03-31T11:42:38.940Z,21.8
2017-03-31T11:43:48.149Z,21.77
2017-03-31T11:44:57.111Z,21.84
2017-03-31T11:46:06.079Z,21.94
2017-03-31T11:47:15.049Z,21.83
2017-03-31T11:48:24.102Z,21.86
2017-03-31T11:49:33.313Z,21.92
2017-03-31T11:50:42.271Z,21.88
2017-03-31T11:51:51.327Z,21.99
2017-03-31T11:53:00.289Z,21.92
2017-03-31T11:54:09.251Z,21.94
2017-03-31T11:55:18.549Z,21.98
2017-03-31T11:56:27.515Z,21.94
2017-03-31T11:57:36.480Z,21.99
2017-03-31T11:58:45.440Z,22.07
2017-03-31T11:59:54.489Z,22
2017-03-31T12:01:03.708Z,22.07
2017-03-31T12:02:12.665Z,22.03
2017-03-31T12:03:21.627Z,22.06
2017-03-31T12:04:30.588Z,22.03
2017-03-31T12:05:39.555Z,22.14
2017-03-31T12:06:48.794Z,22.1
2017-03-31T12:07:57.760Z,22.1
2017-03-31T12:09:06.725Z,22.14
2017-03-31T12:10:15.685Z,22.05
2017-03-31T12:11:24.648Z,22.02
2017-03-31T12:12:33.862Z,22.03
2017-03-31T12:13:42.827Z,22.03
2017-03-31T12:14:51.876Z,22.03
2017-03-31T12:16:01.013Z,22.02
2017-03-31T12:17:09.977Z,22.03
2017-03-31T12:18:19.243Z,21.99
2017-03-31T12:19:28.201Z,22.03
2017-03-31T12:20:37.171Z,22.03
2017-03-31T12:21:46.133Z,22.05
2017-03-31T12:22:55.102Z,22.03
2017-03-31T12:24:04.319Z,21.99
2017-03-31T12:25:13.699Z,22.05
2017-03-31T12:26:22.697Z,22.15
2017-03-31T12:27:31.665Z,22.14
2017-03-31T12:28:40.668Z,22.14
2017-03-31T12:29:49.882Z,22.18
2017-03-31T12:30:58.840Z,22.12
2017-03-31T12:32:07.809Z,22.18
2017-03-31T12:33:16.771Z,22.27
2017-03-31T12:34:26.054Z,22.22
2017-03-31T12:35:35.266Z,22.25
2017-03-31T12:36:44.227Z,22.25
2017-03-31T12:37:53.511Z,22.27
2017-03-31T12:39:02.484Z,22.24
2017-03-31T12:40:11.446Z,22.37
2017-03-31T12:41:20.715Z,22.39
2017-03-31T12:42:29.682Z,22.25
2017-03-31T12:43:38.647Z,22.37
2017-03-31T12:44:47.605Z,22.35
2017-03-31T12:45:56.569Z,22.39
2017-03-31T12:47:05.783Z,22.39
2017-03-31T12:48:14.834Z,22.35
2017-03-31T12:49:23.802Z,22.35
2017-03-31T12:50:32.760Z,22.39
2017-03-31T12:51:41.730Z,22.37
2017-03-31T12:52:50.940Z,22.31
2017-03-31T12:53:59.898Z,22.45
2017-03-31T12:55:08.861Z,22.33
2017-03-31T12:56:17.916Z,22.4
2017-03-31T12:57:26.919Z,22.36
2017-03-31T12:58:36.137Z,22.37
2017-03-31T12:59:45.101Z,22.39
2017-03-31T13:00:54.154Z,22.46
2017-03-31T13:02:03.120Z,22.46
2017-03-31T13:03:12.084Z,22.4
2017-03-31T13:04:21.298Z,22.54
2017-03-31T13:05:30.290Z,22.45
2017-03-31T13:06:39.340Z,22.54
2017-03-31T13:07:48.306Z,22.52
2017-03-31T13:08:57.363Z,22.52
2017-03-31T13:10:06.581Z,22.55
2017-03-31T13:11:15.548Z,22.54
2017-03-31T13:12:24.522Z,22.58
2017-03-31T13:13:33.497Z,22.47
2017-03-31T13:14:42.467Z,22.57
2017-03-31T13:15:51.769Z,22.55
2017-03-31T13:17:01.059Z,22.57
2017-03-31T13:18:10.021Z,22.51
2017-03-31T13:19:18.982Z,22.54
2017-03-31T13:20:27.945Z,22.58
2017-03-31T13:21:37.164Z,22.57
2017-03-31T13:22:46.125Z,22.57
2017-03-31T13:23:55.083Z,22.6
2017-03-31T13:25:04.051Z,22.55
2017-03-31T13:26:13.014Z,22.57
2017-03-31T13:27:22.554Z,22.54
2017-03-31T13:28:31.517Z,22.55
2017-03-31T13:29:40.485Z,22.54
2017-03-31T13:30:49.448Z,22.57
2017-03-31T13:31:58.497Z,22.54
2017-03-31T13:33:07.762Z,22.54
2017-03-31T13:34:16.724Z,22.55
2017-03-31T13:35:25.724Z,22.6
2017-03-31T13:36:34.697Z,22.55
2017-03-31T13:37:43.665Z,22.58
2017-03-31T13:38:52.885Z,22.62
2017-03-31T13:40:01.848Z,22.6
2017-03-31T13:41:10.811Z,22.67
2017-03-31T13:42:19.773Z,22.58
2017-03-31T13:43:28.738Z,22.57
2017-03-31T13:44:37.951Z,22.57
2017-03-31T13:45:46.909Z,22.57
2017-03-31T13:46:55.877Z,22.58
2017-03-31T13:48:04.841Z,22.54
2017-03-31T13:49:13.802Z,22.6
2017-03-31T13:50:23.017Z,22.58
2017-03-31T13:51:31.985Z,22.67
2017-03-31T13:52:40.950Z,22.64
2017-03-31T13:53:49.912Z,22.58
2017-03-31T13:54:58.882Z,22.65
2017-03-31T13:56:08.099Z,22.68
2017-03-31T13:57:17.154Z,22.68
2017-03-31T13:58:26.119Z,22.73
2017-03-31T13:59:35.078Z,22.7
2017-03-31T14:00:44.042Z,22.72
2017-03-31T14:01:53.259Z,22.76
2017-03-31T14:03:02.222Z,22.77
2017-03-31T14:04:11.188Z,22.7
2017-03-31T14:05:20.237Z,22.75
2017-03-31T14:06:29.204Z,22.7
2017-03-31T14:07:38.469Z,22.67
2017-03-31T14:08:47.434Z,22.77
2017-03-31T14:09:56.400Z,22.64
2017-03-31T14:11:05.371Z,22.77
2017-03-31T14:12:14.335Z,22.85
2017-03-31T14:13:23.551Z,22.75
2017-03-31T14:14:33.260Z,22.67
2017-03-31T14:15:42.312Z,22.72
2017-03-31T14:16:51.272Z,22.7
2017-03-31T14:18:00.234Z,22.7
2017-03-31T14:19:09.497Z,22.67
2017-03-31T14:20:18.459Z,22.77
2017-03-31T14:21:27.424Z,22.83
2017-03-31T14:22:36.477Z,22.7
2017-03-31T14:23:45.765Z,22.68
2017-03-31T14:24:54.984Z,22.7
2017-03-31T14:26:03.946Z,22.65
2017-03-31T14:27:12.911Z,22.75
2017-03-31T14:28:21.873Z,22.7
2017-03-31T14:29:30.843Z,22.7
2017-03-31T14:30:40.143Z,22.75
2017-03-31T14:31:49.194Z,22.79
2017-03-31T14:32:58.245Z,22.72
2017-03-31T14:34:07.207Z,22.76
2017-03-31T14:35:16.344Z,22.73
2017-03-31T14:36:25.618Z,22.73
2017-03-31T14:37:34.908Z,22.73
2017-03-31T14:38:43.868Z,22.75
2017-03-31T14:39:52.832Z,22.68
2017-03-31T14:41:01.801Z,22.75
2017-03-31T14:42:11.016Z,22.75
2017-03-31T14:43:19.982Z,22.73
2017-03-31T14:44:28.949Z,22.73
2017-03-31T14:45:37.914Z,22.76
2017-03-31T14:46:46.880Z,22.68
2017-03-31T14:47:56.170Z,22.7
2017-03-31T14:49:05.240Z,22.62
2017-03-31T14:50:14.223Z,22.64
2017-03-31T14:51:23.243Z,22.7
2017-03-31T14:52:32.207Z,22.65